Time;durP1;ratioP1;P1;durP2;ratioP2;P2;SDS_P1;SDS_P2;PMS_P1;PMS_P2;Temp;Humidity;BMP_temperature;BMP_pressure;BME280_temperature;BME280_humidity;BME280_pressure;Samples;Min_cycle;Max_cycle;Signal;HPM_P1;HPM_P2
2022/01/13 00:01:56;;;;;;;17.35;4.10;;;25.60;60.70;;;;;;4997549;28;19921;-72
2022/01/13 00:04:23;;;;;;;14.90;3.95;;;25.60;60.70;;;;;;5003954;28;20045;-75
2022/01/13 00:06:50;;;;;;;19.25;4.00;;;25.60;60.90;;;;;;4998863;28;20069;-76
2022/01/13 00:09:17;;;;;;;9.73;4.00;;;25.50;60.90;;;;;;5000368;28;20045;-75
2022/01/13 00:11:49;;;;;;;12.07;3.55;;;25.50;60.90;;;;;;4995477;28;20230;-74
2022/01/13 00:22:25;;;;;;;15.55;4.43;;;25.40;61.00;;;;;;4992276;28;20049;-77
2022/01/13 00:24:56;;;;;;;12.75;3.50;;;25.40;61.00;;;;;;5001344;28;20027;-76
2022/01/13 00:27:25;;;;;;;14.07;3.80;;;25.40;61.10;;;;;;5002673;28;20706;-77
2022/01/13 00:29:55;;;;;;;14.18;3.97;;;25.40;61.10;;;;;;5004573;28;20065;-78
2022/01/13 00:32:23;;;;;;;14.65;3.83;;;25.40;61.30;;;;;;5003669;28;20381;-75
2022/01/13 00:34:50;;;;;;;15.60;5.28;;;25.40;61.30;;;;;;5000209;28;20018;-76
2022/01/13 00:37:16;;;;;;;13.15;3.33;;;25.40;61.30;;;;;;5002803;28;20022;-75
2022/01/13 00:39:43;;;;;;;13.43;3.38;;;25.40;61.30;;;;;;5000588;28;20473;-74
2022/01/13 00:42:09;;;;;;;13.23;4.03;;;25.30;61.80;;;;;;4999754;28;20084;-77
2022/01/13 00:44:38;;;;;;;15.18;5.30;;;25.30;61.30;;;;;;5030130;28;20438;-77
2022/01/13 00:47:09;;;;;;;19.02;5.03;;;25.30;61.40;;;;;;5001553;28;20022;-76
2022/01/13 00:49:36;;;;;;;13.93;6.15;;;25.30;61.50;;;;;;5002357;28;20029;-76
2022/01/13 00:52:04;;;;;;;11.23;4.13;;;25.30;61.50;;;;;;5003365;28;20731;-74
2022/01/13 00:54:33;;;;;;;20.95;5.57;;;25.30;61.40;;;;;;5004212;28;20376;-74
2022/01/13 00:56:59;;;;;;;21.88;5.20;;;25.30;61.50;;;;;;4997257;28;20088;-75
2022/01/13 00:59:26;;;;;;;14.55;5.07;;;25.30;61.60;;;;;;5002619;28;20022;-76
2022/01/13 01:01:54;;;;;;;14.30;5.45;;;25.30;61.60;;;;;;4998361;28;20049;-76
2022/01/13 01:04:20;;;;;;;17.85;4.85;;;25.30;61.60;;;;;;5002470;28;20031;-76
2022/01/13 01:06:48;;;;;;;13.77;5.63;;;25.20;61.50;;;;;;5003104;28;20010;-75
2022/01/13 01:09:19;;;;;;;17.20;3.80;;;25.20;61.50;;;;;;5003611;28;20060;-75
2022/01/13 01:11:48;;;;;;;20.88;4.75;;;25.20;61.50;;;;;;4998684;28;20030;-76
2022/01/13 01:14:16;;;;;;;17.15;4.38;;;25.20;61.50;;;;;;4998786;28;20465;-75
2022/01/13 01:16:43;;;;;;;9.98;4.05;;;25.20;61.60;;;;;;5004580;28;20468;-76
2022/01/13 01:19:11;;;;;;;12.95;4.60;;;25.20;61.70;;;;;;4995386;28;20489;-75
2022/01/13 01:26:53;;;;;;;11.00;3.53;;;25.20;62.00;;;;;;5001495;28;20105;-77
2022/01/13 01:29:34;;;;;;;8.25;3.03;;;25.10;61.90;;;;;;4998378;28;20156;-75
2022/01/13 01:32:03;;;;;;;11.90;4.32;;;25.10;62.10;;;;;;4999404;28;20030;-77
2022/01/13 01:36:57;;;;;;;15.07;3.65;;;25.10;62.20;;;;;;5004412;28;20024;-75
2022/01/13 01:39:24;;;;;;;14.45;4.60;;;25.10;62.30;;;;;;4996852;28;20054;-76
2022/01/13 01:41:53;;;;;;;11.60;3.75;;;25.10;62.20;;;;;;4994977;28;20625;-77
2022/01/13 01:44:26;;;;;;;11.88;3.78;;;25.10;62.20;;;;;;5004852;28;20038;-74
2022/01/13 01:46:53;;;;;;;14.07;3.88;;;25.10;62.10;;;;;;5002075;28;20030;-75
2022/01/13 01:49:23;;;;;;;14.23;4.38;;;25.10;62.20;;;;;;4998653;28;20022;-74
2022/01/13 01:51:53;;;;;;;16.67;4.13;;;25.10;62.20;;;;;;5003773;28;20022;-77
2022/01/13 01:54:20;;;;;;;19.58;3.63;;;25.10;62.30;;;;;;5003694;28;20030;-75
2022/01/13 01:56:47;;;;;;;16.40;3.17;;;25.10;62.30;;;;;;4999277;28;20045;-77
2022/01/13 01:59:18;;;;;;;8.55;2.97;;;25.10;62.50;;;;;;4997213;28;20023;-74
2022/01/13 02:01:46;;;;;;;10.05;3.42;;;25.10;62.60;;;;;;4997252;28;20501;-75
2022/01/13 02:04:14;;;;;;;13.77;3.70;;;25.10;62.60;;;;;;4998168;28;20049;-75
2022/01/13 02:06:43;;;;;;;8.27;2.80;;;25.10;62.80;;;;;;5004525;28;20021;-74
2022/01/13 02:09:12;;;;;;;14.00;4.05;;;25.00;62.70;;;;;;4996526;28;20428;-78
2022/01/13 02:11:44;;;;;;;13.52;3.38;;;25.00;62.80;;;;;;5001899;28;20551;-74
2022/01/13 02:17:04;;;;;;;24.48;4.72;;;25.00;63.00;;;;;;5000680;28;20029;-72
2022/01/13 02:19:32;;;;;;;14.27;3.75;;;25.00;63.00;;;;;;5000596;28;20077;-74
2022/01/13 02:21:59;;;;;;;16.83;4.05;;;25.00;63.20;;;;;;5000665;28;20116;-73
2022/01/13 02:24:26;;;;;;;19.90;4.20;;;25.00;63.20;;;;;;4999841;28;20080;-75
2022/01/13 02:26:53;;;;;;;9.13;3.33;;;25.00;63.40;;;;;;5000753;28;20505;-73
2022/01/13 02:29:19;;;;;;;18.25;4.07;;;25.00;63.40;;;;;;5001585;28;20050;-77
2022/01/13 02:31:46;;;;;;;12.48;3.72;;;25.00;63.50;;;;;;4997536;28;20022;-74
2022/01/13 02:34:13;;;;;;;15.40;4.45;;;24.90;63.60;;;;;;5001373;28;20389;-77
2022/01/13 02:36:42;;;;;;;23.52;4.78;;;24.90;63.70;;;;;;4995978;28;20434;-75
2022/01/13 02:39:08;;;;;;;13.60;4.85;;;24.90;63.80;;;;;;5000759;28;20486;-74
2022/01/13 02:41:35;;;;;;;12.30;3.17;;;24.90;63.90;;;;;;4997235;28;20045;-75
2022/01/13 02:44:03;;;;;;;10.20;3.05;;;24.90;64.00;;;;;;5004578;28;20058;-74
2022/01/13 02:49:11;;;;;;;19.02;5.05;;;24.90;64.00;;;;;;5001510;28;20025;-74
2022/01/13 02:51:40;;;;;;;16.50;4.88;;;24.90;64.10;;;;;;4998101;28;20022;-73
2022/01/13 02:54:08;;;;;;;28.75;5.85;;;24.90;64.10;;;;;;4995988;28;20153;-75
2022/01/13 02:56:35;;;;;;;53.30;8.18;;;24.90;64.20;;;;;;5000380;28;20022;-74
2022/01/13 02:59:04;;;;;;;31.48;8.10;;;24.80;64.20;;;;;;4996777;28;20054;-74
2022/01/13 03:01:30;;;;;;;19.80;5.82;;;24.90;64.40;;;;;;4999329;28;20611;-73
2022/01/13 03:03:57;;;;;;;19.52;6.13;;;24.80;64.40;;;;;;5000250;28;20019;-74
2022/01/13 03:06:35;;;;;;;16.75;5.05;;;24.80;64.50;;;;;;4998131;28;20592;-74
2022/01/13 03:09:06;;;;;;;25.67;5.13;;;24.80;64.40;;;;;;4998803;28;20033;-75
2022/01/13 03:11:36;;;;;;;21.10;6.22;;;24.80;64.40;;;;;;4998015;28;20382;-73
2022/01/13 03:14:06;;;;;;;9.07;4.20;;;24.80;64.40;;;;;;5002310;28;20392;-74
2022/01/13 03:16:32;;;;;;;13.00;4.70;;;24.80;64.30;;;;;;4996850;28;20049;-73
2022/01/13 03:18:59;;;;;;;12.40;5.07;;;24.80;64.30;;;;;;4997028;28;20033;-74
2022/01/13 03:21:25;;;;;;;13.85;4.95;;;24.80;64.30;;;;;;5000687;28;20028;-76
2022/01/13 03:23:52;;;;;;;12.68;4.75;;;24.80;64.30;;;;;;5004217;28;20063;-73
2022/01/13 03:26:22;;;;;;;23.75;5.47;;;24.80;64.40;;;;;;4999968;28;20485;-75
2022/01/13 03:29:24;;;;;;;23.85;8.13;;;24.70;64.60;;;;;;5001791;28;20395;-75
2022/01/13 03:31:47;;;;;;;40.03;9.02;;;24.80;64.80;;;;;;4995106;28;20572;-76
2022/01/13 03:34:14;;;;;;;33.67;9.15;;;24.70;64.70;;;;;;4997097;28;20034;-73
2022/01/13 03:36:42;;;;;;;29.77;8.60;;;24.70;64.60;;;;;;4991131;28;20023;-74
2022/01/13 03:39:10;;;;;;;37.35;10.68;;;24.70;64.50;;;;;;4999508;28;20029;-75
2022/01/13 03:41:38;;;;;;;36.00;9.35;;;24.70;64.40;;;;;;5000187;28;20053;-77
2022/01/13 03:44:08;;;;;;;30.02;10.10;;;24.70;64.50;;;;;;5002202;28;20014;-75
2022/01/13 03:46:38;;;;;;;39.10;11.77;;;24.70;64.50;;;;;;4992316;28;20030;-75
2022/01/13 03:49:09;;;;;;;37.45;11.05;;;24.70;64.60;;;;;;4991497;28;20027;-74
2022/01/13 03:51:59;;;;;;;19.27;10.88;;;24.70;64.70;;;;;;5002061;28;20018;-77
2022/01/13 03:54:35;;;;;;;32.55;13.18;;;24.70;64.70;;;;;;5002584;28;20006;-74
2022/01/13 03:57:35;;;;;;;53.58;14.40;;;24.60;65.30;;;;;;4997510;28;20030;-75
2022/01/13 04:00:40;;;;;;;66.55;30.35;;;24.50;65.40;;;;;;4996338;28;20037;-75
2022/01/13 04:03:06;;;;;;;68.47;30.08;;;24.50;65.30;;;;;;4997213;28;20565;-74
2022/01/13 04:05:53;;;;;;;47.95;21.40;;;24.60;65.50;;;;;;4996781;28;20022;-73
2022/01/13 04:08:19;;;;;;;50.53;19.45;;;24.60;66.20;;;;;;4992664;28;20030;-77
2022/01/13 04:10:45;;;;;;;51.88;17.58;;;24.60;65.60;;;;;;4993955;28;20037;-74
2022/01/13 04:13:32;;;;;;;28.23;15.02;;;24.60;65.40;;;;;;4996854;28;20014;-80
2022/01/13 04:15:58;;;;;;;40.00;18.35;;;24.60;65.20;;;;;;4994909;28;20505;-76
2022/01/13 04:18:25;;;;;;;30.20;14.82;;;24.60;65.00;;;;;;4998637;28;20415;-72
2022/01/13 04:20:51;;;;;;;46.70;18.88;;;24.60;65.20;;;;;;4996044;28;20127;-77
2022/01/13 04:23:17;;;;;;;47.50;18.50;;;24.50;65.10;;;;;;4999211;28;20497;-73
2022/01/13 04:25:44;;;;;;;57.35;27.60;;;24.60;65.20;;;;;;5000992;28;20022;-74
2022/01/13 04:28:12;;;;;;;44.95;26.77;;;24.60;65.30;;;;;;4993278;28;20332;-73
2022/01/13 04:33:08;;;;;;;38.38;18.65;;;24.50;65.00;;;;;;4982223;28;20101;-72
2022/01/13 04:35:34;;;;;;;40.60;19.92;;;24.60;64.90;;;;;;4989832;28;20417;-77
2022/01/13 04:38:01;;;;;;;39.92;18.20;;;24.60;64.80;;;;;;4982338;28;20022;-70
2022/01/13 04:40:28;;;;;;;36.88;17.13;;;24.60;64.70;;;;;;4987577;28;20026;-71
2022/01/13 04:42:56;;;;;;;45.55;17.42;;;24.60;64.70;;;;;;4983005;28;20039;-74
2022/01/13 04:45:25;;;;;;;40.58;19.27;;;24.60;64.80;;;;;;4990655;28;20033;-71
2022/01/13 04:47:53;;;;;;;53.92;21.63;;;24.60;65.00;;;;;;4983308;28;20039;-71
2022/01/13 04:50:23;;;;;;;38.42;19.20;;;24.60;65.00;;;;;;4988681;28;20022;-79
2022/01/13 04:52:50;;;;;;;30.45;16.98;;;24.60;65.00;;;;;;4984922;28;20033;-72
2022/01/13 04:55:24;;;;;;;24.55;17.52;;;24.60;65.10;;;;;;4987376;28;20126;-73
2022/01/13 04:57:51;;;;;;;30.25;17.80;;;24.60;65.00;;;;;;4982454;28;20157;-73
2022/01/13 05:00:17;;;;;;;25.05;17.90;;;24.60;64.80;;;;;;4983584;28;20043;-73
2022/01/13 05:02:44;;;;;;;29.20;17.13;;;24.60;64.60;;;;;;4983022;28;20070;-74
2022/01/13 05:05:12;;;;;;;20.63;15.48;;;24.60;64.70;;;;;;4985785;28;20027;-75
2022/01/13 05:07:38;;;;;;;40.60;17.08;;;24.60;64.80;;;;;;4986940;28;20160;-76
2022/01/13 05:10:05;;;;;;;40.33;17.33;;;24.60;64.90;;;;;;4983609;28;20097;-73
2022/01/13 05:12:38;;;;;;;32.05;16.20;;;24.60;65.20;;;;;;4991934;28;20027;-73
2022/01/13 05:15:07;;;;;;;32.53;14.68;;;24.60;65.30;;;;;;4992588;28;20049;-73
2022/01/13 05:20:16;;;;;;;26.33;14.40;;;24.60;65.30;;;;;;4991716;28;20022;-73
2022/01/13 05:22:43;;;;;;;20.40;12.63;;;24.60;65.60;;;;;;4990963;28;20049;-73
2022/01/13 05:25:10;;;;;;;21.42;11.02;;;24.70;65.60;;;;;;4988174;28;20470;-74
2022/01/13 05:27:37;;;;;;;30.58;11.00;;;24.70;65.50;;;;;;4987100;28;20486;-73
2022/01/13 05:30:07;;;;;;;19.42;11.20;;;24.70;65.80;;;;;;4987184;28;20026;-72
2022/01/13 05:33:13;;;;;;;19.10;10.95;;;24.70;65.70;;;;;;4987766;28;20513;-76
2022/01/13 05:35:40;;;;;;;;;;;24.70;65.60;;;;;;4989926;28;20018;-76
2022/01/13 05:38:08;;;;;;;18.10;10.85;;;24.70;65.60;;;;;;4989976;28;19918;-72
2022/01/13 05:40:36;;;;;;;20.45;10.02;;;24.80;65.70;;;;;;4989459;28;20093;-76
2022/01/13 05:43:05;;;;;;;35.33;12.63;;;24.80;65.60;;;;;;4983744;28;20490;-73
2022/01/13 05:45:33;;;;;;;15.10;10.10;;;24.90;65.60;;;;;;4991724;28;20038;-74
2022/01/13 05:48:39;;;;;;;15.73;9.30;;;24.90;65.60;;;;;;4986196;28;20536;-74
2022/01/13 05:51:05;;;;;;;;;;;24.90;65.50;;;;;;4984803;28;20031;-73
2022/01/13 05:53:31;;;;;;;17.60;8.20;;;24.90;65.50;;;;;;4987895;28;20328;-72
2022/01/13 05:55:58;;;;;;;21.80;9.00;;;24.90;65.50;;;;;;4990707;28;20046;-73
2022/01/13 05:58:24;;;;;;;21.13;9.32;;;25.00;65.50;;;;;;4990216;28;20072;-72
2022/01/13 06:00:51;;;;;;;17.50;9.30;;;25.00;65.50;;;;;;4985988;28;20038;-76
2022/01/13 06:03:17;;;;;;;19.02;8.82;;;25.00;65.40;;;;;;4988658;28;20050;-74
2022/01/13 06:05:44;;;;;;;22.70;8.80;;;25.00;65.20;;;;;;4990402;28;20033;-73
2022/01/13 06:08:10;;;;;;;23.05;9.85;;;25.00;65.10;;;;;;4990394;28;20023;-73
2022/01/13 06:10:42;;;;;;;25.75;8.80;;;25.10;65.30;;;;;;4987605;28;20420;-76
2022/01/13 06:13:48;;;;;;;22.67;8.57;;;25.10;65.40;;;;;;4990075;28;20022;-80
2022/01/13 06:16:34;;;;;;;;;;;25.20;65.60;;;;;;4990066;28;20371;-73
2022/01/13 06:19:02;;;;;;;30.00;9.98;;;25.20;65.60;;;;;;4990905;28;19913;-73
2022/01/13 06:21:29;;;;;;;27.15;8.25;;;25.20;65.50;;;;;;4987404;28;20139;-73
2022/01/13 06:23:56;;;;;;;16.98;8.32;;;25.30;65.60;;;;;;4987513;28;20041;-74
2022/01/13 06:26:23;;;;;;;26.50;8.25;;;25.30;65.70;;;;;;5006819;28;20037;-73
2022/01/13 06:28:49;;;;;;;15.45;8.10;;;25.40;65.70;;;;;;4989335;28;20029;-75
2022/01/13 06:31:16;;;;;;;14.93;7.40;;;25.40;65.60;;;;;;4988380;28;20032;-75
2022/01/13 06:33:42;;;;;;;14.88;7.00;;;25.40;65.50;;;;;;4990191;28;20027;-73
2022/01/13 06:36:09;;;;;;;20.58;8.35;;;25.50;65.50;;;;;;4987649;28;20010;-73
2022/01/13 06:38:36;;;;;;;17.15;8.90;;;25.50;65.40;;;;;;4988521;28;20495;-75
2022/01/13 06:41:03;;;;;;;19.58;8.85;;;25.60;65.50;;;;;;4984086;28;20034;-73
2022/01/13 06:43:29;;;;;;;22.85;7.35;;;25.60;65.40;;;;;;4981270;28;20492;-73
2022/01/13 06:45:56;;;;;;;20.73;8.23;;;25.60;65.30;;;;;;4991377;28;20027;-74
2022/01/13 06:48:23;;;;;;;17.75;8.23;;;25.70;65.20;;;;;;4986695;28;20022;-73
2022/01/13 06:50:49;;;;;;;18.70;7.78;;;25.70;64.90;;;;;;4986760;28;20381;-73
2022/01/13 06:53:16;;;;;;;18.42;6.75;;;25.70;64.60;;;;;;4986210;28;20389;-73
2022/01/13 06:55:42;;;;;;;28.35;9.75;;;25.70;64.20;;;;;;4988632;28;20010;-73
2022/01/13 06:58:08;;;;;;;49.08;11.65;;;25.70;64.20;;;;;;4993022;28;20018;-74
2022/01/13 07:00:37;;;;;;;31.63;8.73;;;25.70;64.10;;;;;;5000195;28;20029;-72
2022/01/13 07:03:04;;;;;;;35.97;8.80;;;25.80;64.50;;;;;;4994948;28;20070;-73
2022/01/13 07:05:30;;;;;;;35.30;10.07;;;25.80;64.50;;;;;;5001525;28;20018;-72
2022/01/13 07:07:57;;;;;;;22.38;6.60;;;25.80;64.40;;;;;;4998128;28;20030;-72
2022/01/13 07:10:23;;;;;;;19.20;7.30;;;25.80;64.30;;;;;;5003196;28;20013;-74
2022/01/13 07:12:50;;;;;;;21.63;7.88;;;25.90;64.10;;;;;;4999365;28;20022;-72
2022/01/13 07:15:16;;;;;;;18.50;7.20;;;25.90;64.00;;;;;;5003320;28;20026;-73
2022/01/13 07:17:43;;;;;;;16.60;6.50;;;26.00;63.90;;;;;;4999390;28;20011;-73
2022/01/13 07:20:10;;;;;;;24.30;8.77;;;26.00;63.80;;;;;;4998615;28;20022;-72
2022/01/13 07:22:38;;;;;;;21.20;7.75;;;26.00;63.80;;;;;;4996576;28;20470;-72
2022/01/13 07:25:06;;;;;;;12.10;7.47;;;26.10;63.70;;;;;;5005620;28;20080;-73
2022/01/13 07:27:32;;;;;;;35.72;8.45;;;26.10;63.60;;;;;;4995578;28;20037;-72
2022/01/13 07:29:59;;;;;;;34.80;8.32;;;26.20;63.50;;;;;;5000880;28;20461;-73
2022/01/13 07:32:26;;;;;;;26.65;7.82;;;26.20;63.40;;;;;;4997507;28;20014;-74
2022/01/13 07:34:52;;;;;;;24.30;8.20;;;26.30;63.40;;;;;;4997671;28;20464;-73
2022/01/13 07:37:20;;;;;;;19.42;8.25;;;26.30;63.20;;;;;;5002033;28;20358;-73
2022/01/13 07:39:47;;;;;;;15.80;7.22;;;26.30;63.00;;;;;;4996609;28;20030;-73
2022/01/13 07:42:15;;;;;;;26.58;7.75;;;26.40;63.00;;;;;;4999586;28;20030;-74
2022/01/13 07:44:41;;;;;;;16.95;6.65;;;26.40;62.90;;;;;;4999264;28;20029;-73
2022/01/13 07:47:07;;;;;;;19.58;7.88;;;26.50;62.90;;;;;;5001597;28;20033;-72
2022/01/13 07:49:37;;;;;;;28.10;8.05;;;26.60;62.80;;;;;;5001065;28;20109;-72
2022/01/13 07:52:04;;;;;;;20.20;7.93;;;26.60;63.30;;;;;;4997925;28;20153;-73
2022/01/13 07:54:31;;;;;;;22.00;7.82;;;26.70;62.50;;;;;;4999534;28;20493;-76
2022/01/13 07:56:59;;;;;;;19.00;9.48;;;26.80;62.40;;;;;;5001345;28;20018;-73
2022/01/13 07:59:28;;;;;;;26.38;8.43;;;26.80;62.10;;;;;;5000848;28;20014;-74
2022/01/13 08:01:56;;;;;;;24.92;9.65;;;26.90;61.80;;;;;;4997648;28;20050;-74
2022/01/13 08:04:23;;;;;;;22.38;9.77;;;26.90;61.60;;;;;;4999089;28;20030;-73
2022/01/13 08:06:49;;;;;;;19.65;8.00;;;27.00;61.50;;;;;;5001517;28;20050;-73
2022/01/13 08:09:16;;;;;;;33.25;8.77;;;27.00;61.30;;;;;;5000760;28;20022;-74
2022/01/13 08:11:45;;;;;;;24.02;8.20;;;27.00;61.20;;;;;;5000649;28;20026;-73
2022/01/13 08:14:13;;;;;;;23.88;9.40;;;27.10;61.20;;;;;;5002268;28;20018;-74
2022/01/13 08:16:43;;;;;;;19.25;7.95;;;27.10;61.00;;;;;;5013661;28;20030;-74
2022/01/13 08:21:54;;;;;;;15.98;7.38;;;27.10;60.90;;;;;;4996959;28;20123;-74
2022/01/13 08:24:21;;;;;;;24.73;8.25;;;27.20;60.80;;;;;;4997696;28;20027;-75
2022/01/13 08:26:47;;;;;;;14.95;7.57;;;27.30;61.50;;;;;;4996466;28;20040;-73
2022/01/13 08:29:14;;;;;;;22.60;7.85;;;27.30;60.70;;;;;;5003158;28;20018;-73
2022/01/13 08:31:40;;;;;;;27.13;8.93;;;27.40;60.60;;;;;;4996592;28;20026;-76
2022/01/13 08:34:07;;;;;;;26.17;10.45;;;27.40;60.60;;;;;;4998703;28;20036;-73
2022/01/13 08:36:34;;;;;;;32.22;9.85;;;27.40;60.50;;;;;;5004599;28;20760;-73
2022/01/13 08:39:00;;;;;;;21.70;8.48;;;27.50;60.60;;;;;;4999282;28;20034;-75
2022/01/13 08:41:27;;;;;;;20.90;6.80;;;27.50;60.40;;;;;;4995015;28;20049;-73
2022/01/13 08:43:55;;;;;;;33.00;8.88;;;27.60;60.30;;;;;;5000904;28;20030;-76
2022/01/13 08:46:21;;;;;;;23.88;6.32;;;27.70;60.30;;;;;;5002188;28;20056;-75
2022/01/13 08:48:48;;;;;;;26.25;7.30;;;27.70;60.10;;;;;;4997856;28;20030;-75
2022/01/13 08:51:17;;;;;;;28.58;7.93;;;27.80;59.80;;;;;;4998930;28;20034;-74
2022/01/13 08:53:43;;;;;;;19.73;5.68;;;27.80;59.80;;;;;;5016837;28;20041;-75
2022/01/13 08:56:10;;;;;;;18.60;5.75;;;27.90;59.50;;;;;;5004248;28;20024;-73
2022/01/13 08:58:37;;;;;;;17.75;5.82;;;27.90;59.30;;;;;;5001624;28;20065;-76
2022/01/13 09:01:03;;;;;;;28.45;5.82;;;28.00;59.30;;;;;;5001816;28;20049;-75
2022/01/13 09:03:30;;;;;;;17.42;5.05;;;28.00;59.20;;;;;;5000535;28;20097;-74
2022/01/13 09:05:56;;;;;;;20.85;5.28;;;28.10;59.20;;;;;;5006866;28;20026;-74
2022/01/13 09:08:23;;;;;;;9.38;4.78;;;28.20;58.90;;;;;;5001798;28;20049;-74
2022/01/13 09:10:49;;;;;;;19.60;5.72;;;28.20;58.70;;;;;;5001762;28;20032;-74
2022/01/13 09:13:16;;;;;;;20.38;6.13;;;28.20;58.70;;;;;;4999981;28;20838;-75
2022/01/13 09:15:57;;;;;;;10.27;4.60;;;28.20;58.50;;;;;;4998445;28;20092;-74
2022/01/13 09:18:45;;;;;;;20.17;5.65;;;28.30;58.50;;;;;;5033677;28;20484;-74
2022/01/13 09:21:13;;;;;;;14.55;5.35;;;28.30;58.50;;;;;;5004610;28;20064;-74
2022/01/13 09:23:40;;;;;;;15.73;3.80;;;28.40;58.60;;;;;;5002718;28;20453;-73
2022/01/13 09:26:07;;;;;;;16.27;4.13;;;28.40;58.50;;;;;;4998341;28;20500;-73
2022/01/13 09:28:35;;;;;;;13.02;4.05;;;28.50;58.40;;;;;;5002743;28;20028;-73
2022/01/13 09:31:02;;;;;;;12.45;3.80;;;28.50;58.20;;;;;;5020538;28;20026;-73
2022/01/13 09:33:29;;;;;;;10.85;3.38;;;28.60;58.00;;;;;;5000402;28;20025;-75
2022/01/13 09:35:55;;;;;;;40.22;5.38;;;28.60;58.00;;;;;;4998447;28;20045;-75
2022/01/13 09:38:22;;;;;;;15.23;3.50;;;28.70;57.80;;;;;;5003725;28;20033;-74
2022/01/13 09:40:52;;;;;;;10.90;3.50;;;28.70;57.70;;;;;;5003381;28;20014;-74
2022/01/13 09:43:22;;;;;;;11.70;4.85;;;28.80;57.60;;;;;;4995642;28;20509;-74
2022/01/13 09:45:50;;;;;;;24.33;4.90;;;28.90;57.60;;;;;;5002241;28;20050;-73
2022/01/13 09:48:16;;;;;;;10.77;3.97;;;28.90;57.60;;;;;;5000931;28;20230;-74
2022/01/13 09:50:48;;;;;;;9.18;3.58;;;29.00;57.50;;;;;;5004521;28;20014;-73
2022/01/13 09:53:15;;;;;;;9.63;3.15;;;29.00;57.40;;;;;;4994695;28;20026;-74
2022/01/13 09:55:44;;;;;;;10.13;2.70;;;29.10;57.30;;;;;;5001818;28;20030;-75
2022/01/13 09:58:11;;;;;;;12.55;3.35;;;29.10;57.00;;;;;;5001012;28;20029;-74
2022/01/13 10:00:44;;;;;;;8.13;2.88;;;29.20;56.80;;;;;;5001615;28;20018;-76
2022/01/13 10:03:19;;;;;;;11.57;3.67;;;29.20;56.60;;;;;;4992399;28;20052;-75
2022/01/13 10:05:59;;;;;;;9.57;2.50;;;29.20;56.50;;;;;;4996152;28;20442;-74
2022/01/13 10:08:45;;;;;;;8.05;2.50;;;29.30;56.90;;;;;;5000330;28;20053;-74
2022/01/13 10:11:29;;;;;;;10.25;2.83;;;29.30;55.90;;;;;;5001191;28;20025;-74
2022/01/13 10:16:22;;;;;;;9.15;2.53;;;29.30;55.80;;;;;;5000344;28;20021;-74
2022/01/13 10:17:05;;;;;;;11.48;3.13;;;29.30;55.50;;;;;;4999019;28;20116;-75
2022/01/13 10:19:39;;;;;;;5.03;3.15;;;29.40;55.30;;;;;;4994737;28;20018;-76
2022/01/13 10:22:11;;;;;;;;;;;29.40;55.20;;;;;;5000228;28;20049;-76
2022/01/13 10:24:40;;;;;;;4.72;2.30;;;29.40;54.90;;;;;;4996843;28;19913;-76
2022/01/13 10:27:15;;;;;;;11.13;2.45;;;29.50;55.00;;;;;;5004843;28;20156;-73
2022/01/13 10:29:55;;;;;;;8.82;3.13;;;29.60;54.80;;;;;;4999481;28;20038;-73
2022/01/13 10:32:48;;;;;;;10.10;2.75;;;29.60;54.70;;;;;;4999013;28;20379;-73
2022/01/13 10:35:18;;;;;;;12.90;3.00;;;29.70;55.00;;;;;;4996181;28;20030;-74
2022/01/13 10:37:58;;;;;;;9.38;3.08;;;29.70;55.00;;;;;;4996301;28;20018;-73
2022/01/13 10:40:30;;;;;;;13.43;3.05;;;29.70;55.10;;;;;;4997274;28;20081;-75
2022/01/13 10:45:37;;;;;;;15.35;3.20;;;29.90;55.10;;;;;;4997854;28;20021;-74
2022/01/13 10:48:09;;;;;;;6.60;2.15;;;29.90;54.90;;;;;;5002963;28;20023;-74
2022/01/13 10:50:43;;;;;;;14.00;3.15;;;30.00;54.80;;;;;;4998737;28;20033;-73
2022/01/13 10:53:19;;;;;;;10.63;3.08;;;30.00;54.50;;;;;;5000540;28;20033;-74
2022/01/13 10:55:49;;;;;;;13.05;2.65;;;30.10;54.40;;;;;;4998168;28;20061;-73
2022/01/13 10:58:18;;;;;;;5.18;2.33;;;30.10;54.40;;;;;;5001184;28;20540;-74
2022/01/13 11:00:46;;;;;;;12.77;2.97;;;30.20;54.50;;;;;;4996727;28;20585;-74
2022/01/13 11:03:17;;;;;;;7.95;2.50;;;30.20;54.40;;;;;;4999943;28;20046;-74
2022/01/13 11:05:56;;;;;;;10.52;2.55;;;30.30;54.20;;;;;;4998028;28;20509;-75
2022/01/13 11:08:44;;;;;;;4.80;2.33;;;30.40;54.10;;;;;;5000723;28;20029;-77
2022/01/13 11:11:31;;;;;;;7.90;2.60;;;30.50;54.00;;;;;;5000836;28;20017;-74
2022/01/13 11:14:07;;;;;;;7.63;2.15;;;30.50;53.90;;;;;;4996307;28;20026;-74
2022/01/13 11:16:34;;;;;;;6.03;2.30;;;30.60;54.00;;;;;;4996606;28;20549;-74
2022/01/13 11:19:01;;;;;;;8.20;2.72;;;30.60;53.90;;;;;;4998951;28;20033;-75
2022/01/13 11:21:27;;;;;;;6.75;2.08;;;30.70;53.80;;;;;;4995706;28;20030;-74
2022/01/13 11:23:55;;;;;;;7.45;2.53;;;30.70;53.60;;;;;;5001124;28;20494;-73
2022/01/13 11:26:27;;;;;;;5.00;2.00;;;30.80;53.30;;;;;;5001682;28;20054;-74
2022/01/13 11:28:58;;;;;;;3.65;2.00;;;30.80;53.20;;;;;;4998336;28;20026;-73
2022/01/13 11:31:25;;;;;;;5.63;2.00;;;30.80;53.30;;;;;;5017844;28;20035;-73
2022/01/13 11:33:52;;;;;;;6.72;2.63;;;30.90;53.40;;;;;;4998616;28;20026;-73
2022/01/13 11:36:21;;;;;;;8.48;2.25;;;30.90;53.30;;;;;;4995386;28;20088;-73
2022/01/13 11:38:55;;;;;;;4.93;1.83;;;30.90;53.00;;;;;;4999836;28;20385;-76
2022/01/13 11:41:21;;;;;;;;;;;30.90;52.80;;;;;;5002738;28;20019;-73
2022/01/13 11:43:48;;;;;;;8.75;2.13;;;31.00;52.90;;;;;;4996070;28;19953;-76
2022/01/13 11:46:21;;;;;;;7.25;2.13;;;31.00;53.00;;;;;;4996750;28;20350;-74
2022/01/13 11:49:10;;;;;;;4.22;2.10;;;31.00;52.90;;;;;;4998424;28;20034;-73
2022/01/13 11:51:44;;;;;;;7.45;2.13;;;31.10;52.80;;;;;;4997639;28;20026;-73
2022/01/13 11:54:24;;;;;;;10.98;2.03;;;31.10;52.70;;;;;;4999217;28;20064;-74
2022/01/13 11:57:19;;;;;;;5.50;1.67;;;31.10;52.70;;;;;;4998528;28;20449;-75
2022/01/13 12:00:06;;;;;;;9.77;2.05;;;31.20;52.80;;;;;;4993777;28;20177;-75
2022/01/13 12:02:38;;;;;;;4.32;2.28;;;31.20;52.80;;;;;;4990197;28;20125;-73
2022/01/13 12:05:15;;;;;;;5.25;1.98;;;31.20;52.70;;;;;;5001050;28;20079;-75
2022/01/13 12:07:43;;;;;;;12.30;2.67;;;31.20;52.50;;;;;;4999995;28;20014;-74
2022/01/13 12:10:31;;;;;;;7.68;2.10;;;31.30;52.20;;;;;;4997511;28;20021;-75
2022/01/13 12:12:58;;;;;;;6.53;2.03;;;31.30;52.10;;;;;;4993437;28;20054;-73
2022/01/13 12:15:26;;;;;;;8.25;3.03;;;31.40;52.00;;;;;;4996826;28;20014;-76
2022/01/13 12:18:01;;;;;;;17.50;3.55;;;31.40;52.20;;;;;;5002006;28;20029;-75
2022/01/13 12:23:45;;;;;;;8.02;4.05;;;31.40;52.60;;;;;;5001035;28;20518;-73
2022/01/13 12:26:33;;;;;;;19.92;3.15;;;31.40;52.40;;;;;;5003364;28;20030;-74
2022/01/13 12:29:18;;;;;;;10.35;2.40;;;31.50;52.30;;;;;;4992817;28;20054;-73
2022/01/13 12:31:53;;;;;;;12.23;2.40;;;31.50;52.40;;;;;;4987845;28;20375;-72
2022/01/13 12:34:33;;;;;;;13.73;3.78;;;31.60;52.30;;;;;;4989847;28;20034;-73
2022/01/13 12:37:15;;;;;;;7.85;3.38;;;31.60;52.30;;;;;;4988628;28;20117;-73
2022/01/13 12:39:50;;;;;;;13.70;3.55;;;31.60;52.40;;;;;;4991960;28;20029;-73
2022/01/13 12:42:33;;;;;;;10.93;3.30;;;31.70;52.40;;;;;;4992382;28;20174;-73
2022/01/13 12:47:46;;;;;;;18.85;3.60;;;31.70;52.30;;;;;;4991197;28;20390;-72
2022/01/13 12:50:16;;;;;;;25.05;9.13;;;31.80;52.40;;;;;;4991741;28;20023;-72
2022/01/13 12:52:42;;;;;;;14.10;6.00;;;31.80;52.40;;;;;;4988047;28;20050;-73
2022/01/13 12:55:10;;;;;;;9.93;3.35;;;31.80;52.50;;;;;;4990310;28;20026;-72
2022/01/13 12:57:44;;;;;;;4.20;2.72;;;31.70;52.60;;;;;;4990435;28;20015;-73
2022/01/13 13:00:12;;;;;;;5.30;2.33;;;31.70;52.60;;;;;;4991156;28;20030;-74
2022/01/13 13:02:55;;;;;;;5.43;2.00;;;31.70;52.60;;;;;;4988406;28;20129;-73
2022/01/13 13:05:35;;;;;;;5.07;2.50;;;31.60;52.40;;;;;;4989967;28;20022;-72
2022/01/13 13:08:01;;;;;;;31.10;6.85;;;31.60;52.40;;;;;;4992974;28;20105;-78
2022/01/13 13:10:29;;;;;;;38.00;6.40;;;31.60;52.60;;;;;;4991997;28;20492;-83
2022/01/13 13:12:57;;;;;;;16.60;5.03;;;31.50;53.00;;;;;;4990396;28;20019;-74
2022/01/13 13:17:51;;;;;;;37.42;5.18;;;31.50;53.00;;;;;;4987266;28;20022;-73
2022/01/13 13:20:27;;;;;;;13.10;2.35;;;31.50;53.00;;;;;;5013388;28;20051;-75
2022/01/13 13:22:56;;;;;;;6.82;1.90;;;31.50;53.30;;;;;;4996630;28;20453;-74
2022/01/13 13:25:34;;;;;;;29.60;13.57;;;31.50;53.50;;;;;;5001141;28;20537;-73
2022/01/13 13:28:26;;;;;;;18.02;4.93;;;31.50;53.80;;;;;;4999761;28;20034;-78
2022/01/13 13:30:58;;;;;;;13.93;2.90;;;31.60;53.70;;;;;;4986300;28;20398;-72
2022/01/13 13:33:36;;;;;;;9.90;2.20;;;31.60;53.60;;;;;;4993230;28;20114;-73
2022/01/13 13:36:18;;;;;;;11.02;2.45;;;31.60;53.40;;;;;;4989593;28;20039;-73